Time;durP1;ratioP1;P1;durP2;ratioP2;P2;SDS_P1;SDS_P2;PMS_P1;PMS_P2;Temp;Humidity;BMP_temperature;BMP_pressure;BME280_temperature;BME280_humidity;BME280_pressure;Samples;Min_cycle;Max_cycle;Signal;HPM_P1;HPM_P2
2022/01/24 00:00:25;;;;;;;4.95;2.60;;;;;;;;;;5069682;28;20500;-76
2022/01/24 00:02:51;;;;;;;5.05;2.80;;;;;;;;;;5069436;28;20079;-77
2022/01/24 00:05:17;;;;;;;5.57;2.55;;;;;;;;;;5068545;28;20501;-75
2022/01/24 00:07:43;;;;;;;4.93;2.60;;;;;;;;;;5069797;28;20052;-75
2022/01/24 00:10:15;;;;;;;4.88;2.75;;;;;;;;;;5069529;28;20037;-75
2022/01/24 00:12:54;;;;;;;4.10;2.50;;;;;;;;;;5069960;28;20701;-76
2022/01/24 00:15:53;;;;;;;5.30;2.95;;;;;;;;;;5070966;28;20040;-75
2022/01/24 00:18:25;;;;;;;4.45;2.40;;;;;;;;;;5071158;28;20496;-75
2022/01/24 00:26:46;;;;;;;5.97;2.72;;;;;;;;;;5060623;28;20048;-75
2022/01/24 00:29:17;;;;;;;4.20;2.63;;;;;;;;;;5091332;28;20535;-75
2022/01/24 00:31:43;;;;;;;5.72;2.80;;;;;;;;;;5073832;28;20027;-76
2022/01/24 00:34:09;;;;;;;6.43;2.50;;;;;;;;;;5086559;28;20035;-75
2022/01/24 00:36:35;;;;;;;4.80;2.75;;;;;;;;;;5094404;28;20043;-75
2022/01/24 00:39:03;;;;;;;4.40;2.55;;;;;;;;;;5085693;28;20017;-76
2022/01/24 00:41:33;;;;;;;3.67;2.30;;;;;;;;;;5094703;28;20039;-76
2022/01/24 00:46:55;;;;;;;6.07;2.80;;;;;;;;;;5096049;28;20036;-75
2022/01/24 00:54:43;;;;;;;6.28;3.13;;;;;;;;;;5095017;28;20016;-77
2022/01/24 00:57:10;;;;;;;5.60;3.10;;;;;;;;;;5078635;28;20053;-77
2022/01/24 00:59:37;;;;;;;4.22;2.60;;;;;;;;;;5078626;28;20047;-77
2022/01/24 01:02:04;;;;;;;6.18;2.80;;;;;;;;;;5090844;28;20043;-76
2022/01/24 01:18:21;;;;;;;5.75;2.53;;;;;;;;;;5072960;28;20044;-77
2022/01/24 01:23:32;;;;;;;4.13;2.50;;;;;;;;;;5072297;28;20040;-77
2022/01/24 01:26:05;;;;;;;;;;;;;;;;;;5072346;28;20032;-77
2022/01/24 01:28:32;;;;;;;5.45;2.53;;;;;;;;;;5072128;28;20238;-77
2022/01/24 01:31:07;;;;;;;4.35;2.47;;;;;;;;;;5071703;28;20550;-77
2022/01/24 01:33:50;;;;;;;5.57;2.65;;;;;;;;;;5072098;28;20048;-77
2022/01/24 01:36:35;;;;;;;5.32;2.42;;;;;;;;;;5071753;28;20037;-75
2022/01/24 01:55:43;;;;;;;5.97;2.75;;;;;;;;;;5069164;28;20040;-77
2022/01/24 01:58:11;;;;;;;4.85;2.40;;;;;;;;;;5067028;28;20048;-77
2022/01/24 02:00:44;;;;;;;4.72;2.30;;;;;;;;;;5066763;28;20055;-77
2022/01/24 02:03:10;;;;;;;5.43;2.40;;;;;;;;;;5067921;28;20025;-77
2022/01/24 02:05:36;;;;;;;4.10;2.55;;;;;;;;;;5067528;28;20033;-77
2022/01/24 02:08:03;;;;;;;5.90;2.40;;;;;;;;;;5067025;28;20056;-75
2022/01/24 02:10:33;;;;;;;4.70;2.60;;;;;;;;;;5067097;28;20148;-76
2022/01/24 02:12:58;;;;;;;4.72;2.53;;;;;;;;;;5067267;28;20054;-75
2022/01/24 02:25:53;;;;;;;7.45;2.45;;;;;;;;;;5067348;28;20504;-77
2022/01/24 02:28:22;;;;;;;4.40;2.65;;;;;;;;;;5066706;28;20070;-76
2022/01/24 02:33:33;;;;;;;6.25;2.78;;;;;;;;;;5067713;28;20037;-76
2022/01/24 02:35:59;;;;;;;4.80;2.85;;;;;;;;;;5037568;28;20446;-76
2022/01/24 02:49:34;;;;;;;4.18;2.40;;;;;;;;;;5047938;28;20032;-77
2022/01/24 02:52:05;;;;;;;;;;;;;;;;;;5047035;28;20048;-74
2022/01/24 02:54:32;;;;;;;4.15;2.35;;;;;;;;;;5046136;28;20342;-77
2022/01/24 02:57:00;;;;;;;6.22;2.63;;;;;;;;;;5046297;28;20041;-75
2022/01/24 02:59:26;;;;;;;7.75;2.42;;;;;;;;;;5066223;28;20154;-77
2022/01/24 03:01:52;;;;;;;4.10;2.47;;;;;;;;;;5065406;28;20044;-74
2022/01/24 03:04:18;;;;;;;5.22;2.40;;;;;;;;;;5064886;28;20044;-77
2022/01/24 03:06:44;;;;;;;8.88;2.50;;;;;;;;;;5065472;28;20048;-77
2022/01/24 03:09:12;;;;;;;7.10;2.47;;;;;;;;;;5065034;28;20036;-75
2022/01/24 03:14:18;;;;;;;4.18;2.42;;;;;;;;;;5066964;28;20048;-77
2022/01/24 03:16:44;;;;;;;5.13;2.40;;;;;;;;;;5064430;28;20047;-77
2022/01/24 03:19:10;;;;;;;4.68;2.40;;;;;;;;;;5065138;28;20045;-77
2022/01/24 03:21:36;;;;;;;6.22;2.60;;;;;;;;;;5066103;28;20125;-77
2022/01/24 03:24:02;;;;;;;6.07;2.50;;;;;;;;;;5066492;28;20527;-77
2022/01/24 03:26:28;;;;;;;4.40;2.42;;;;;;;;;;5066034;28;20044;-77
2022/01/24 03:28:54;;;;;;;5.65;2.53;;;;;;;;;;5066693;28;20071;-77
2022/01/24 03:31:20;;;;;;;4.22;2.45;;;;;;;;;;5065774;28;20078;-77
2022/01/24 03:33:46;;;;;;;4.05;2.90;;;;;;;;;;5066181;28;20637;-77
2022/01/24 03:36:12;;;;;;;5.47;2.42;;;;;;;;;;5065993;28;20051;-77
2022/01/24 03:38:38;;;;;;;4.30;2.53;;;;;;;;;;5067020;28;20040;-77
2022/01/24 03:41:04;;;;;;;6.65;2.50;;;;;;;;;;5066686;28;20442;-77
2022/01/24 03:43:30;;;;;;;5.30;2.65;;;;;;;;;;5066102;28;20051;-77
2022/01/24 03:48:42;;;;;;;5.45;2.88;;;;;;;;;;5066474;28;20040;-77
2022/01/24 03:51:10;;;;;;;5.57;2.53;;;;;;;;;;5069778;28;20032;-77
2022/01/24 03:53:36;;;;;;;5.38;2.75;;;;;;;;;;5069041;28;20096;-77
2022/01/24 03:56:03;;;;;;;4.18;2.53;;;;;;;;;;5069059;28;20047;-77
2022/01/24 03:58:29;;;;;;;5.57;2.53;;;;;;;;;;5049174;28;20352;-77
2022/01/24 04:00:55;;;;;;;5.22;2.50;;;;;;;;;;5049192;28;20056;-77
2022/01/24 04:03:22;;;;;;;6.18;2.58;;;;;;;;;;5048811;28;20049;-77
2022/01/24 04:05:48;;;;;;;5.97;2.45;;;;;;;;;;5049008;28;20140;-77
2022/01/24 04:08:14;;;;;;;4.82;2.38;;;;;;;;;;5049818;28;20040;-77
2022/01/24 04:10:43;;;;;;;5.80;2.13;;;;;;;;;;5049635;28;20355;-76
2022/01/24 04:13:24;;;;;;;5.22;2.70;;;;;;;;;;5048737;28;20465;-77
2022/01/24 04:18:53;;;;;;;4.95;2.40;;;;;;;;;;5021581;28;20060;-77
2022/01/24 04:24:05;;;;;;;3.92;2.42;;;;;;;;;;5049556;28;20048;-77
2022/01/24 04:26:32;;;;;;;3.38;2.20;;;;;;;;;;5049769;28;20021;-76
2022/01/24 04:28:59;;;;;;;5.65;2.30;;;;;;;;;;5048828;28;20053;-76
2022/01/24 04:31:25;;;;;;;4.15;2.40;;;;;;;;;;5048872;28;20501;-77
2022/01/24 04:33:51;;;;;;;5.25;2.10;;;;;;;;;;5048639;28;20052;-77
2022/01/24 04:36:19;;;;;;;6.65;2.88;;;;;;;;;;5049528;28;20068;-77
2022/01/24 04:38:45;;;;;;;3.88;2.30;;;;;;;;;;5049550;28;20044;-77
2022/01/24 04:41:17;;;;;;;4.00;2.30;;;;;;;;;;5050198;28;20419;-77
2022/01/24 04:44:06;;;;;;;3.45;2.30;;;;;;;;;;5049559;28;20064;-77
2022/01/24 04:54:44;;;;;;;8.65;2.47;;;;;;;;;;5053139;28;20037;-77
2022/01/24 04:57:16;;;;;;;4.15;1.88;;;;;;;;;;5070243;28;20046;-77
2022/01/24 04:59:45;;;;;;;4.05;2.15;;;;;;;;;;5085432;28;20299;-76
2022/01/24 05:02:11;;;;;;;4.10;2.38;;;;;;;;;;5091007;28;20120;-76
2022/01/24 05:04:45;;;;;;;3.47;2.17;;;;;;;;;;5094479;28;20055;-76
2022/01/24 05:07:12;;;;;;;5.10;2.25;;;;;;;;;;5073455;28;20220;-76
2022/01/24 05:09:55;;;;;;;5.10;2.20;;;;;;;;;;5089140;28;20055;-75
2022/01/24 05:23:41;;;;;;;3.05;2.17;;;;;;;;;;5067807;28;20025;-76
2022/01/24 05:26:08;;;;;;;4.40;2.30;;;;;;;;;;5070157;28;20045;-76
2022/01/24 05:28:35;;;;;;;5.60;2.20;;;;;;;;;;5053174;28;20363;-77
2022/01/24 05:31:02;;;;;;;3.72;2.20;;;;;;;;;;5063736;28;20469;-77
2022/01/24 05:38:39;;;;;;;3.60;2.22;;;;;;;;;;5620651;22;20046;-77
2022/01/24 05:41:05;;;;;;;5.35;2.45;;;;;;;;;;5023602;28;20041;-77
2022/01/24 05:43:31;;;;;;;6.05;2.35;;;;;;;;;;5042606;28;20114;-76
2022/01/24 05:45:57;;;;;;;4.55;2.35;;;;;;;;;;5043774;28;20057;-76
2022/01/24 05:48:23;;;;;;;4.30;2.40;;;;;;;;;;5034279;28;20152;-76
2022/01/24 05:50:49;;;;;;;4.82;2.40;;;;;;;;;;5035521;28;20052;-76
2022/01/24 05:53:15;;;;;;;4.03;2.03;;;;;;;;;;5036380;28;20037;-76
2022/01/24 05:55:41;;;;;;;5.03;2.45;;;;;;;;;;5042467;28;20044;-77
2022/01/24 05:58:07;;;;;;;4.40;2.25;;;;;;;;;;5044846;28;20617;-75
2022/01/24 06:00:35;;;;;;;4.72;2.30;;;;;;;;;;5032400;28;20060;-76
2022/01/24 06:03:01;;;;;;;3.75;2.00;;;;;;;;;;5047668;28;20423;-76
2022/01/24 06:05:27;;;;;;;3.88;2.38;;;;;;;;;;5047094;28;20080;-76
2022/01/24 06:07:54;;;;;;;3.55;2.10;;;;;;;;;;5047693;28;20417;-75
2022/01/24 06:10:20;;;;;;;5.78;1.95;;;;;;;;;;5045583;28;20036;-76
2022/01/24 06:12:46;;;;;;;6.55;2.15;;;;;;;;;;5047086;28;20032;-76
2022/01/24 06:15:13;;;;;;;3.80;2.33;;;;;;;;;;5044241;28;20067;-76
2022/01/24 06:17:39;;;;;;;4.43;2.20;;;;;;;;;;5046427;28;20048;-75
2022/01/24 06:20:06;;;;;;;3.30;2.03;;;;;;;;;;5047404;28;20036;-75
2022/01/24 06:22:32;;;;;;;4.05;2.30;;;;;;;;;;5044060;28;20033;-77
2022/01/24 06:24:59;;;;;;;5.93;2.40;;;;;;;;;;5047102;28;20109;-78
2022/01/24 06:27:25;;;;;;;4.38;2.47;;;;;;;;;;5047266;28;20033;-77
2022/01/24 06:29:51;;;;;;;3.97;2.38;;;;;;;;;;5021960;28;20052;-77
2022/01/24 06:32:16;;;;;;;5.20;2.60;;;;;;;;;;5046566;28;20037;-77
2022/01/24 06:34:44;;;;;;;6.53;2.30;;;;;;;;;;5038783;28;20611;-77
2022/01/24 06:37:10;;;;;;;4.20;2.33;;;;;;;;;;5028125;28;20071;-77
2022/01/24 06:39:36;;;;;;;6.38;2.28;;;;;;;;;;5046428;28;20415;-77
2022/01/24 06:42:45;;;;;;;6.25;2.50;;;;;;;;;;5000862;28;20045;-77
2022/01/24 06:44:54;;;;;;;5.07;2.45;;;;;;;;;;5019573;28;20541;-77
2022/01/24 06:47:21;;;;;;;6.57;2.65;;;;;;;;;;5026921;28;20053;-77
2022/01/24 06:49:48;;;;;;;4.88;2.30;;;;;;;;;;5009022;28;20041;-77
2022/01/24 06:52:14;;;;;;;5.00;2.55;;;;;;;;;;5015685;28;20073;-76
2022/01/24 06:54:41;;;;;;;6.65;2.60;;;;;;;;;;5021282;28;20473;-75
2022/01/24 06:57:11;;;;;;;3.83;2.30;;;;;;;;;;5008580;28;20525;-75
2022/01/24 06:59:41;;;;;;;4.15;2.53;;;;;;;;;;5026726;28;20482;-77
2022/01/24 07:02:08;;;;;;;3.80;2.37;;;;;;;;;;5024291;28;20072;-75
2022/01/24 07:04:36;;;;;;;5.30;2.85;;;;;;;;;;5027386;28;20032;-76
2022/01/24 07:07:04;;;;;;;5.95;3.17;;;;;;;;;;5026083;28;20478;-75
2022/01/24 07:09:30;;;;;;;5.18;2.90;;;;;;;;;;5012935;28;20064;-78
2022/01/24 07:11:56;;;;;;;4.13;2.67;;;;;;;;;;5022122;28;20034;-76
2022/01/24 07:14:22;;;;;;;5.75;2.80;;;;;;;;;;5026496;28;20045;-78
2022/01/24 07:19:29;;;;;;;4.95;3.00;;;;;;;;;;5026501;28;20045;-77
2022/01/24 07:21:57;;;;;;;4.30;2.80;;;;;;;;;;5022362;28;21143;-79
2022/01/24 07:24:24;;;;;;;4.65;2.88;;;;;;;;;;5007800;28;20048;-75
2022/01/24 07:26:50;;;;;;;5.55;2.70;;;;;;;;;;5029681;28;20053;-75
2022/01/24 07:29:17;;;;;;;4.55;2.80;;;;;;;;;;5029954;28;20052;-75
2022/01/24 07:31:43;;;;;;;6.28;3.10;;;;;;;;;;5025075;28;20061;-76
2022/01/24 07:34:09;;;;;;;5.15;2.92;;;;;;;;;;5029764;28;20037;-76
2022/01/24 07:36:35;;;;;;;5.22;3.25;;;;;;;;;;5029161;28;20045;-76
2022/01/24 07:39:02;;;;;;;4.82;3.03;;;;;;;;;;5029217;28;20041;-76
2022/01/24 07:41:30;;;;;;;5.18;3.10;;;;;;;;;;5017797;28;20387;-76
2022/01/24 07:43:56;;;;;;;4.78;3.08;;;;;;;;;;5030383;28;20049;-75
2022/01/24 07:46:23;;;;;;;11.48;6.22;;;;;;;;;;5027809;28;20029;-76
2022/01/24 07:48:49;;;;;;;8.05;3.45;;;;;;;;;;5023904;28;20034;-77
2022/01/24 07:51:15;;;;;;;5.70;3.20;;;;;;;;;;5025115;28;20055;-75
2022/01/24 07:53:45;;;;;;;6.40;3.50;;;;;;;;;;5025819;28;20045;-74
2022/01/24 07:56:12;;;;;;;7.63;3.97;;;;;;;;;;5029394;28;20038;-75
2022/01/24 07:58:38;;;;;;;5.82;3.05;;;;;;;;;;5025657;28;20048;-76
2022/01/24 08:01:04;;;;;;;5.43;2.97;;;;;;;;;;5027229;28;20037;-76
2022/01/24 08:03:30;;;;;;;5.35;3.00;;;;;;;;;;5012288;28;20584;-78
2022/01/24 08:05:56;;;;;;;4.50;2.75;;;;;;;;;;5029363;28;20045;-79
2022/01/24 08:08:22;;;;;;;6.55;3.00;;;;;;;;;;5025271;28;20033;-73
2022/01/24 08:10:48;;;;;;;4.30;2.85;;;;;;;;;;5025580;28;20379;-73
2022/01/24 08:13:14;;;;;;;4.97;2.90;;;;;;;;;;5023190;28;20321;-80
2022/01/24 08:15:40;;;;;;;5.05;2.97;;;;;;;;;;5029239;28;20371;-79
2022/01/24 08:18:06;;;;;;;7.30;3.42;;;;;;;;;;5010533;28;20049;-80
2022/01/24 08:20:33;;;;;;;5.03;3.20;;;;;;;;;;5027526;28;20049;-81
2022/01/24 08:23:00;;;;;;;6.50;3.13;;;;;;;;;;5006640;28;20425;-80
2022/01/24 08:25:26;;;;;;;6.82;3.10;;;;;;;;;;5028510;28;20045;-73
2022/01/24 08:27:53;;;;;;;5.35;3.00;;;;;;;;;;5028763;28;20041;-73
2022/01/24 08:30:22;;;;;;;7.25;3.10;;;;;;;;;;5028209;28;20037;-73
2022/01/24 08:32:48;;;;;;;5.50;3.00;;;;;;;;;;5026568;28;20060;-79
2022/01/24 08:35:15;;;;;;;5.40;3.40;;;;;;;;;;5021512;28;20526;-80
2022/01/24 08:37:41;;;;;;;5.35;3.10;;;;;;;;;;5028324;28;20045;-78
2022/01/24 08:40:10;;;;;;;6.35;3.30;;;;;;;;;;5023816;28;20115;-78
2022/01/24 08:47:36;;;;;;;5.75;3.08;;;;;;;;;;5028696;28;20041;-78
2022/01/24 08:50:05;;;;;;;6.43;3.50;;;;;;;;;;5017908;28;20631;-78
2022/01/24 08:52:31;;;;;;;9.32;3.75;;;;;;;;;;5021677;28;20042;-78
2022/01/24 08:54:57;;;;;;;6.57;3.30;;;;;;;;;;5027979;28;20045;-84
2022/01/24 08:57:26;;;;;;;6.53;3.10;;;;;;;;;;5030786;28;20046;-85
2022/01/24 08:59:54;;;;;;;6.47;3.20;;;;;;;;;;5030473;28;20049;-87
2022/01/24 09:02:23;;;;;;;5.78;3.45;;;;;;;;;;5027774;28;20058;-82
2022/01/24 09:04:49;;;;;;;7.20;3.30;;;;;;;;;;5028108;28;20040;-83
2022/01/24 09:07:18;;;;;;;6.13;3.13;;;;;;;;;;5029305;28;20029;-83
2022/01/24 09:09:44;;;;;;;10.50;3.47;;;;;;;;;;5028468;28;20042;-82
2022/01/24 09:12:12;;;;;;;6.00;3.15;;;;;;;;;;5026622;28;20049;-83
2022/01/24 09:14:40;;;;;;;6.95;3.67;;;;;;;;;;5027406;28;20053;-82
2022/01/24 09:17:06;;;;;;;5.10;2.95;;;;;;;;;;5012434;28;20053;-80
2022/01/24 09:19:32;;;;;;;5.10;3.13;;;;;;;;;;5018294;28;20052;-83
2022/01/24 09:21:58;;;;;;;7.05;3.40;;;;;;;;;;5020785;28;20047;-88
2022/01/24 09:24:24;;;;;;;6.88;3.67;;;;;;;;;;5019999;28;20116;-73
2022/01/24 09:26:50;;;;;;;5.82;3.33;;;;;;;;;;5023868;28;20045;-72
2022/01/24 09:29:16;;;;;;;6.35;3.33;;;;;;;;;;5026798;28;20580;-74
2022/01/24 09:31:42;;;;;;;5.18;3.08;;;;;;;;;;5024543;28;20049;-78
2022/01/24 09:34:08;;;;;;;6.75;3.28;;;;;;;;;;5027485;28;20052;-79
2022/01/24 09:36:34;;;;;;;6.43;3.53;;;;;;;;;;5027598;28;20071;-74
2022/01/24 09:39:00;;;;;;;6.95;3.97;;;;;;;;;;5022942;28;20114;-73
2022/01/24 09:41:26;;;;;;;6.90;3.75;;;;;;;;;;5018187;28;20060;-76
2022/01/24 09:43:52;;;;;;;6.22;3.50;;;;;;;;;;5018949;28;20573;-76
2022/01/24 09:46:17;;;;;;;5.88;3.65;;;;;;;;;;5027391;28;20056;-77
2022/01/24 09:48:43;;;;;;;7.75;3.47;;;;;;;;;;5017387;28;20126;-76
2022/01/24 09:51:10;;;;;;;5.53;3.00;;;;;;;;;;5027366;28;20065;-77
2022/01/24 09:53:37;;;;;;;7.15;3.38;;;;;;;;;;5027016;28;20510;-78
2022/01/24 09:56:04;;;;;;;5.53;3.25;;;;;;;;;;5027173;28;20045;-77
2022/01/24 09:58:34;;;;;;;6.60;3.30;;;;;;;;;;5027160;28;20398;-77
2022/01/24 10:01:01;;;;;;;5.70;3.50;;;;;;;;;;5006366;28;20057;-78
2022/01/24 10:03:27;;;;;;;7.40;3.90;;;;;;;;;;5027141;28;20052;-79
2022/01/24 10:05:55;;;;;;;7.47;3.55;;;;;;;;;;5025910;28;20499;-78
2022/01/24 10:08:24;;;;;;;8.07;3.67;;;;;;;;;;5015613;28;20487;-76
2022/01/24 10:10:55;;;;;;;9.27;3.65;;;;;;;;;;5023520;28;20042;-77
2022/01/24 10:16:45;;;;;;;5.90;3.53;;;;;;;;;;5023409;28;20045;-76
2022/01/24 10:19:10;;;;;;;6.13;3.53;;;;;;;;;;5023118;28;20049;-75
2022/01/24 10:21:40;;;;;;;6.97;3.42;;;;;;;;;;5016469;28;20425;-77
2022/01/24 10:24:07;;;;;;;8.27;3.67;;;;;;;;;;5008610;28;20053;-76
2022/01/24 10:26:33;;;;;;;5.10;3.20;;;;;;;;;;5026852;28;20037;-77
2022/01/24 10:28:59;;;;;;;6.65;3.65;;;;;;;;;;5026247;28;20049;-75
2022/01/24 10:31:29;;;;;;;7.45;3.70;;;;;;;;;;5024450;28;20506;-79
2022/01/24 10:34:25;;;;;;;7.68;4.05;;;;;;;;;;5019386;28;20045;-77
2022/01/24 10:36:53;;;;;;;8.55;4.20;;;;;;;;;;5026548;28;20375;-77
2022/01/24 10:39:33;;;;;;;5.75;3.80;;;;;;;;;;5026900;28;20038;-77
2022/01/24 10:42:54;;;;;;;9.20;4.03;;;;;;;;;;5027104;28;20042;-75
2022/01/24 10:45:22;;;;;;;10.13;3.38;;;;;;;;;;4939397;28;20054;-78
2022/01/24 10:47:52;;;;;;;8.43;3.70;;;;;;;;;;5022256;28;20406;-77
2022/01/24 10:50:28;;;;;;;8.27;3.92;;;;;;;;;;5026417;28;20076;-77
2022/01/24 10:52:55;;;;;;;8.88;3.97;;;;;;;;;;5023317;28;20045;-84
2022/01/24 10:55:28;;;;;;;11.15;3.65;;;;;;;;;;5029559;28;20038;-84
2022/01/24 10:57:59;;;;;;;6.30;3.55;;;;;;;;;;5025446;28;20053;-80
2022/01/24 11:00:28;;;;;;;8.02;3.80;;;;;;;;;;5032461;28;20057;-82
2022/01/24 11:02:56;;;;;;;7.95;4.00;;;;;;;;;;5017945;28;20038;-82
2022/01/24 11:05:25;;;;;;;8.50;4.05;;;;;;;;;;5033042;28;20041;-80
2022/01/24 11:07:51;;;;;;;6.55;4.03;;;;;;;;;;5013373;28;20052;-81
2022/01/24 11:10:17;;;;;;;7.90;4.57;;;;;;;;;;5030522;28;20418;-72
2022/01/24 11:12:46;;;;;;;7.70;4.20;;;;;;;;;;4966687;28;20660;-72
2022/01/24 11:15:12;;;;;;;7.95;4.00;;;;;;;;;;4997154;28;20045;-71
2022/01/24 11:17:40;;;;;;;7.28;4.18;;;;;;;;;;5007995;28;20262;-74
2022/01/24 11:20:10;;;;;;;7.55;4.70;;;;;;;;;;5001958;28;20475;-73
2022/01/24 11:22:42;;;;;;;9.17;4.13;;;;;;;;;;5006900;28;20049;-73
2022/01/24 11:25:10;;;;;;;7.68;3.97;;;;;;;;;;5009283;28;20057;-74
2022/01/24 11:27:45;;;;;;;7.28;4.28;;;;;;;;;;5005644;28;20475;-73
2022/01/24 11:30:21;;;;;;;7.72;4.25;;;;;;;;;;5009236;28;20042;-73
2022/01/24 11:33:01;;;;;;;12.98;4.53;;;;;;;;;;5009400;28;20046;-73
2022/01/24 11:35:31;;;;;;;9.20;4.07;;;;;;;;;;5008935;28;20472;-73
2022/01/24 11:37:58;;;;;;;8.55;4.55;;;;;;;;;;5007140;28;20045;-79
2022/01/24 11:40:26;;;;;;;8.57;4.07;;;;;;;;;;5010074;28;20089;-79
2022/01/24 11:42:53;;;;;;;7.72;4.47;;;;;;;;;;4985850;28;20399;-73
2022/01/24 11:45:56;;;;;;;7.55;4.05;;;;;;;;;;5008861;28;20049;-73
2022/01/24 11:48:22;;;;;;;8.70;4.38;;;;;;;;;;5007320;28;20415;-75
2022/01/24 11:51:06;;;;;;;7.13;4.28;;;;;;;;;;5004283;28;20049;-74
2022/01/24 11:53:36;;;;;;;8.98;4.60;;;;;;;;;;4999687;28;20042;-74
2022/01/24 11:56:27;;;;;;;10.88;4.68;;;;;;;;;;5003159;28;20068;-75
2022/01/24 11:59:22;;;;;;;11.55;4.57;;;;;;;;;;4990585;28;20054;-77
2022/01/24 12:02:04;;;;;;;6.93;3.88;;;;;;;;;;5000086;28;20058;-77
2022/01/24 12:04:48;;;;;;;9.30;3.97;;;;;;;;;;4999156;28;20042;-79
2022/01/24 12:07:21;;;;;;;8.88;3.85;;;;;;;;;;5007008;28;20050;-75
2022/01/24 12:09:49;;;;;;;8.50;3.90;;;;;;;;;;5008274;28;20046;-71
2022/01/24 12:12:44;;;;;;;6.30;3.63;;;;;;;;;;5003244;28;20038;-71
2022/01/24 12:15:30;;;;;;;10.35;3.75;;;;;;;;;;5003870;28;20042;-73
2022/01/24 12:18:01;;;;;;;6.85;3.47;;;;;;;;;;5005696;28;20550;-74
2022/01/24 12:20:48;;;;;;;8.10;3.80;;;;;;;;;;5005428;28;20054;-76
2022/01/24 12:23:19;;;;;;;9.38;4.18;;;;;;;;;;5008341;28;20974;-77
2022/01/24 12:25:49;;;;;;;6.65;4.07;;;;;;;;;;5009089;28;20041;-77
2022/01/24 12:28:19;;;;;;;7.75;3.78;;;;;;;;;;5004497;28;20752;-76
2022/01/24 12:31:11;;;;;;;7.63;3.78;;;;;;;;;;5007510;28;20053;-76
2022/01/24 12:33:43;;;;;;;6.88;3.83;;;;;;;;;;5008996;28;20375;-76
2022/01/24 12:36:15;;;;;;;8.27;3.88;;;;;;;;;;5004453;28;20054;-75
2022/01/24 12:38:46;;;;;;;8.23;3.75;;;;;;;;;;5008955;28;20517;-77
2022/01/24 12:41:32;;;;;;;7.43;3.25;;;;;;;;;;5006375;28;20531;-76
2022/01/24 12:46:50;;;;;;;5.60;3.05;;;;;;;;;;4973792;28;20042;-74
2022/01/24 12:49:16;;;;;;;6.28;3.33;;;;;;;;;;5003682;28;20067;-76
2022/01/24 12:51:45;;;;;;;6.68;3.25;;;;;;;;;;5002455;28;20056;-71
2022/01/24 12:54:11;;;;;;;6.55;3.65;;;;;;;;;;5002326;28;20054;-77
2022/01/24 12:56:37;;;;;;;10.00;3.78;;;;;;;;;;5000616;28;20416;-77
2022/01/24 12:59:03;;;;;;;7.25;3.85;;;;;;;;;;4995484;28;20042;-77
2022/01/24 13:01:35;;;;;;;6.45;3.50;;;;;;;;;;5001457;28;20038;-77
2022/01/24 13:04:06;;;;;;;8.90;3.95;;;;;;;;;;5008545;28;20041;-78
2022/01/24 13:06:35;;;;;;;6.63;3.30;;;;;;;;;;5007339;28;20470;-74
2022/01/24 13:09:06;;;;;;;9.05;3.45;;;;;;;;;;5007053;28;20046;-74
2022/01/24 13:11:43;;;;;;;6.25;3.47;;;;;;;;;;5007582;28;20054;-74
2022/01/24 13:14:26;;;;;;;11.35;5.40;;;;;;;;;;5007056;28;20046;-73
2022/01/24 13:22:48;;;;;;;7.35;3.40;;;;;;;;;;5009444;28;20046;-76
2022/01/24 13:25:22;;;;;;;7.05;3.20;;;;;;;;;;5004541;28;20044;-78
2022/01/24 13:27:52;;;;;;;5.88;2.97;;;;;;;;;;5001649;28;20397;-77
2022/01/24 13:30:29;;;;;;;6.43;3.53;;;;;;;;;;5005405;28;20041;-79
2022/01/24 13:32:57;;;;;;;6.40;3.00;;;;;;;;;;4990037;28;20534;-78
2022/01/24 13:35:27;;;;;;;5.97;3.08;;;;;;;;;;5007701;28;20053;-77
2022/01/24 13:38:31;;;;;;;9.75;3.30;;;;;;;;;;5007870;28;20053;-78
2022/01/24 13:41:11;;;;;;;5.57;2.95;;;;;;;;;;4975702;28;20042;-78
2022/01/24 13:43:45;;;;;;;7.43;2.80;;;;;;;;;;5006989;28;20049;-77
2022/01/24 13:46:14;;;;;;;6.78;2.92;;;;;;;;;;5007930;28;20048;-75
2022/01/24 13:48:47;;;;;;;6.65;3.35;;;;;;;;;;5008427;28;20045;-74
2022/01/24 13:51:22;;;;;;;6.93;3.25;;;;;;;;;;5007533;28;20034;-75
2022/01/24 13:53:57;;;;;;;5.50;2.78;;;;;;;;;;5007071;28;20052;-74
2022/01/24 13:56:27;;;;;;;6.35;2.80;;;;;;;;;;5004924;28;20041;-77
2022/01/24 13:59:08;;;;;;;6.18;2.97;;;;;;;;;;4988835;28;20057;-75
2022/01/24 14:01:37;;;;;;;7.30;3.65;;;;;;;;;;4989284;28;20495;-74
2022/01/24 14:04:06;;;;;;;6.55;3.15;;;;;;;;;;4988740;28;20046;-75
2022/01/24 14:06:35;;;;;;;8.18;3.50;;;;;;;;;;4994389;28;20586;-73
2022/01/24 14:09:08;;;;;;;5.97;3.25;;;;;;;;;;5003344;28;20034;-76
2022/01/24 14:11:42;;;;;;;7.93;3.17;;;;;;;;;;5002986;28;20037;-76
2022/01/24 14:14:12;;;;;;;8.00;3.17;;;;;;;;;;5006898;28;20504;-76
2022/01/24 14:17:03;;;;;;;6.90;3.35;;;;;;;;;;5007111;28;20038;-76
2022/01/24 14:19:35;;;;;;;5.77;2.63;;;;;;;;;;5006626;28;20506;-73
2022/01/24 14:22:11;;;;;;;6.63;3.28;;;;;;;;;;5004577;28;20038;-73
2022/01/24 14:24:55;;;;;;;6.32;2.90;;;;;;;;;;5004706;28;20034;-73
2022/01/24 14:27:38;;;;;;;6.43;3.45;;;;;;;;;;5008026;28;20037;-75
2022/01/24 14:30:20;;;;;;;5.85;2.95;;;;;;;;;;5006973;28;20045;-72
2022/01/24 14:37:59;;;;;;;6.70;2.70;;;;;;;;;;5922376;23;20054;-70
2022/01/24 14:40:44;;;;;;;5.55;3.03;;;;;;;;;;5000748;23;20387;-70
2022/01/24 14:45:59;;;;;;;5.32;2.85;;;;;;;;;;5029197;28;20049;-69
2022/01/24 14:48:25;;;;;;;7.57;2.85;;;;;;;;;;5033233;28;20045;-69
2022/01/24 14:50:51;;;;;;;7.15;2.83;;;;;;;;;;5034442;28;20114;-71
2022/01/24 14:53:17;;;;;;;6.22;3.20;;;;;;;;;;5014556;28;20099;-69
2022/01/24 14:55:43;;;;;;;6.35;3.42;;;;;;;;;;5028481;28;20688;-70
2022/01/24 14:58:09;;;;;;;5.38;3.03;;;;;;;;;;5026165;28;20042;-72
2022/01/24 15:00:35;;;;;;;8.57;3.35;;;;;;;;;;5039060;28;20536;-69
2022/01/24 15:03:01;;;;;;;5.70;3.00;;;;;;;;;;5039459;28;20051;-71
2022/01/24 15:05:26;;;;;;;5.80;3.00;;;;;;;;;;5032354;28;20112;-69
2022/01/24 15:07:52;;;;;;;6.15;2.92;;;;;;;;;;5029804;28;20439;-70
2022/01/24 15:10:18;;;;;;;6.30;3.13;;;;;;;;;;5038145;28;20047;-71
2022/01/24 15:12:50;;;;;;;7.20;3.10;;;;;;;;;;5026168;28;20056;-70
2022/01/24 15:15:18;;;;;;;8.57;3.45;;;;;;;;;;5038632;28;20734;-69
2022/01/24 15:28:40;;;;;;;6.13;3.10;;;;;;;;;;5178437;22;20045;-69
2022/01/24 15:31:06;;;;;;;7.30;3.10;;;;;;;;;;5026748;28;20118;-69
2022/01/24 15:33:32;;;;;;;8.05;3.00;;;;;;;;;;5008564;28;20115;-70
2022/01/24 15:35:58;;;;;;;5.80;3.00;;;;;;;;;;5026720;28;20489;-70
2022/01/24 15:38:24;;;;;;;8.38;3.88;;;;;;;;;;5026028;28;20518;-71
2022/01/24 15:40:50;;;;;;;6.82;3.25;;;;;;;;;;5026231;28;20081;-70
2022/01/24 15:46:43;;;;;;;8.13;3.30;;;;;;;;;;5027698;28;20038;-70
2022/01/24 15:48:33;;;;;;;5.57;3.03;;;;;;;;;;5028300;28;20041;-70
2022/01/24 15:50:59;;;;;;;5.43;3.05;;;;;;;;;;5030075;28;20466;-69
2022/01/24 15:53:25;;;;;;;6.82;3.30;;;;;;;;;;5030391;28;20065;-71
2022/01/24 15:56:14;;;;;;;7.78;3.53;;;;;;;;;;5030064;28;20130;-70
2022/01/24 15:58:37;;;;;;;7.68;3.40;;;;;;;;;;5004438;28;20038;-69
2022/01/24 16:01:03;;;;;;;7.28;3.63;;;;;;;;;;5009716;28;20124;-70
2022/01/24 16:03:29;;;;;;;9.40;5.75;;;;;;;;;;5010205;28;20049;-69
2022/01/24 16:05:54;;;;;;;6.10;2.97;;;;;;;;;;5009801;28;20077;-69
2022/01/24 16:08:22;;;;;;;6.53;3.75;;;;;;;;;;5017944;28;20042;-70
2022/01/24 16:10:48;;;;;;;7.57;4.38;;;;;;;;;;5009630;28;20045;-69
2022/01/24 16:13:16;;;;;;;10.60;4.75;;;;;;;;;;4992011;28;20042;-70
2022/01/24 16:15:42;;;;;;;7.05;4.03;;;;;;;;;;5010499;28;20042;-69
2022/01/24 16:18:13;;;;;;;10.45;4.88;;;;;;;;;;5010001;28;20049;-69
2022/01/24 16:20:50;;;;;;;13.82;5.47;;;;;;;;;;5008735;28;20049;-69
2022/01/24 16:25:47;;;;;;;8.30;3.85;;;;;;;;;;4994189;28;20041;-70
2022/01/24 16:28:16;;;;;;;8.38;3.72;;;;;;;;;;5028254;28;20045;-70
2022/01/24 16:30:46;;;;;;;7.97;3.47;;;;;;;;;;5029879;28;20037;-70
2022/01/24 16:33:12;;;;;;;7.07;3.50;;;;;;;;;;5029345;28;20049;-70
2022/01/24 16:35:39;;;;;;;6.95;3.38;;;;;;;;;;5030070;28;20044;-70
2022/01/24 16:38:09;;;;;;;7.85;3.50;;;;;;;;;;5029369;28;20072;-70
2022/01/24 16:40:51;;;;;;;8.57;3.92;;;;;;;;;;5029275;28;20061;-70
2022/01/24 16:43:37;;;;;;;9.77;4.10;;;;;;;;;;5029077;28;20080;-70
2022/01/24 16:48:54;;;;;;;9.52;3.88;;;;;;;;;;5028152;28;20041;-69
2022/01/24 16:51:20;;;;;;;6.68;3.40;;;;;;;;;;5026271;28;20386;-69
2022/01/24 16:53:50;;;;;;;6.78;3.55;;;;;;;;;;5028420;28;20029;-69
2022/01/24 16:56:17;;;;;;;7.15;3.38;;;;;;;;;;5027896;28;20471;-69
2022/01/24 16:58:43;;;;;;;7.40;3.63;;;;;;;;;;5029242;28;20033;-69
2022/01/24 17:01:09;;;;;;;7.25;3.83;;;;;;;;;;5027110;28;20052;-70
2022/01/24 17:03:36;;;;;;;6.80;3.20;;;;;;;;;;5028547;28;20478;-70
2022/01/24 17:06:02;;;;;;;6.60;3.65;;;;;;;;;;5010872;28;20037;-70
2022/01/24 17:08:28;;;;;;;7.97;3.80;;;;;;;;;;5030057;28;20029;-70
2022/01/24 17:10:56;;;;;;;7.15;3.80;;;;;;;;;;5047895;28;20406;-71
2022/01/24 17:13:24;;;;;;;6.75;3.60;;;;;;;;;;5047532;28;20053;-69
2022/01/24 17:15:52;;;;;;;9.70;4.00;;;;;;;;;;5047954;28;20032;-69
2022/01/24 17:18:21;;;;;;;6.70;3.63;;;;;;;;;;5048768;28;20040;-69
2022/01/24 17:20:49;;;;;;;9.48;4.35;;;;;;;;;;5048550;28;20040;-70
2022/01/24 17:23:15;;;;;;;10.25;3.40;;;;;;;;;;5048377;28;20063;-70
2022/01/24 17:25:41;;;;;;;7.35;4.07;;;;;;;;;;5049033;28;20033;-69
2022/01/24 17:28:08;;;;;;;7.95;3.80;;;;;;;;;;5046796;28;20405;-69
2022/01/24 17:30:34;;;;;;;8.82;4.25;;;;;;;;;;5035331;28;20046;-70